Time;durP1;ratioP1;P1;durP2;ratioP2;P2;SDS_P1;SDS_P2;PMS_P1;PMS_P2;Temp;Humidity;BMP_temperature;BMP_pressure;BME280_temperature;BME280_humidity;BME280_pressure;Samples;Min_cycle;Max_cycle;Signal;HPM_P1;HPM_P2
2021/12/13 00:00:35;;;;;;;;;1.00;1.00;13.40;99.90;;;;;;5009824;28;11116;-59
2021/12/13 00:03:26;;;;;;;;;0.00;0.00;13.40;99.90;;;;;;5045057;28;11421;-58
2021/12/13 00:06:17;;;;;;;;;2.00;2.00;13.40;99.90;;;;;;5030264;28;11486;-58
2021/12/13 00:08:54;;;;;;;;;1.00;1.00;13.40;99.90;;;;;;5016318;28;11430;-58
2021/12/13 00:11:32;;;;;;;;;1.00;1.00;13.40;99.90;;;;;;5033688;28;11452;-58
2021/12/13 00:14:08;;;;;;;;;1.50;1.00;13.40;99.90;;;;;;5032082;28;11124;-59
2021/12/13 00:16:57;;;;;;;;;0.00;0.00;13.40;99.90;;;;;;5044021;28;11416;-58
2021/12/13 00:19:39;;;;;;;;;0.50;0.50;13.40;99.90;;;;;;5027338;28;12002;-59
2021/12/13 00:22:14;;;;;;;;;0.00;0.00;13.40;99.90;;;;;;5025405;28;11434;-59
2021/12/13 00:24:49;;;;;;;;;0.75;0.75;13.40;99.90;;;;;;5008032;28;11450;-61
2021/12/13 00:27:28;;;;;;;;;5.00;5.00;13.40;99.90;;;;;;5025880;28;11575;-59
2021/12/13 00:30:05;;;;;;;;;3.00;3.00;13.40;99.90;;;;;;5025912;28;11454;-59
2021/12/13 00:32:48;;;;;;;;;2.25;2.25;13.40;99.90;;;;;;5042391;28;11450;-60
2021/12/13 00:35:24;;;;;;;;;1.00;1.00;13.40;99.90;;;;;;5022757;28;11547;-60
2021/12/13 00:38:02;;;;;;;;;1.00;1.00;13.40;99.90;;;;;;5036324;28;11388;-59
2021/12/13 00:40:47;;;;;;;;;1.00;1.00;13.40;99.90;;;;;;5009731;28;11628;-59
2021/12/13 00:43:42;;;;;;;;;0.00;0.00;13.40;99.90;;;;;;5045345;28;11423;-59
2021/12/13 00:46:15;;;;;;;;;0.50;0.50;13.40;99.90;;;;;;5026063;28;11530;-58
2021/12/13 00:48:51;;;;;;;;;0.00;0.00;13.40;99.90;;;;;;5031261;28;11454;-60
2021/12/13 00:51:37;;;;;;;;;0.75;0.75;13.40;99.90;;;;;;5017753;28;11462;-60
2021/12/13 00:54:25;;;;;;;;;1.00;1.00;13.40;99.90;;;;;;5009781;28;11430;-59
2021/12/13 00:56:56;;;;;;;;;1.00;1.00;13.40;99.90;;;;;;5031611;28;11413;-59
2021/12/13 00:59:38;;;;;;;;;2.50;2.00;13.40;99.90;;;;;;5041093;28;11560;-60
2021/12/13 01:02:39;;;;;;;;;0.00;0.00;13.40;99.90;;;;;;5040168;28;12148;-59
2021/12/13 01:05:17;;;;;;;;;1.00;1.00;13.40;99.90;;;;;;5001414;28;11446;-58
2021/12/13 01:08:16;;;;;;;;;1.75;1.75;13.40;99.90;;;;;;5028104;28;11458;-58
2021/12/13 01:11:01;;;;;;;;;0.00;0.00;13.40;99.90;;;;;;5047442;28;11458;-58
2021/12/13 01:13:54;;;;;;;;;1.00;1.00;13.40;99.90;;;;;;5043049;28;11444;-59
2021/12/13 01:16:57;;;;;;;;;0.75;0.75;13.40;99.90;;;;;;5041250;28;11438;-59
2021/12/13 01:19:57;;;;;;;;;1.00;1.00;13.40;99.90;;;;;;5038371;28;11692;-59
2021/12/13 01:22:49;;;;;;;;;0.00;0.00;13.40;99.90;;;;;;5022955;28;12252;-58
2021/12/13 01:26:26;;;;;;;;;0.00;0.00;13.40;99.90;;;;;;5021235;28;11458;-59
2021/12/13 01:28:38;;;;;;;;;1.00;1.00;13.40;99.90;;;;;;5033412;28;11563;-59
2021/12/13 01:31:22;;;;;;;;;0.75;0.75;13.40;99.90;;;;;;5042120;28;11565;-59
2021/12/13 01:33:55;;;;;;;;;1.00;1.00;13.40;99.90;;;;;;5008471;28;11429;-58
2021/12/13 01:36:38;;;;;;;;;1.00;1.00;13.40;99.90;;;;;;5030471;28;11461;-59
2021/12/13 01:39:24;;;;;;;;;1.00;1.00;13.40;99.90;;;;;;5014516;28;11506;-60
2021/12/13 01:42:26;;;;;;;;;0.00;0.00;13.40;99.90;;;;;;5026493;28;11411;-59
2021/12/13 01:45:03;;;;;;;;;1.00;1.00;13.40;99.90;;;;;;5041499;28;11498;-60
2021/12/13 01:47:41;;;;;;;;;0.00;0.00;13.40;99.90;;;;;;5032067;28;11465;-61
2021/12/13 01:50:20;;;;;;;;;1.00;1.00;13.40;99.90;;;;;;5045836;28;11430;-57
2021/12/13 01:52:54;;;;;;;;;0.00;0.00;13.40;99.90;;;;;;5027291;28;11412;-57
2021/12/13 01:55:37;;;;;;;;;1.00;1.00;13.40;99.90;;;;;;5039667;28;11426;-58
2021/12/13 01:58:36;;;;;;;;;1.00;1.00;13.40;99.90;;;;;;5027730;28;11448;-58
2021/12/13 02:01:16;;;;;;;;;1.00;1.00;13.40;99.90;;;;;;5046076;28;11437;-59
2021/12/13 02:04:04;;;;;;;;;1.00;1.00;13.40;99.90;;;;;;5027813;28;11424;-59
2021/12/13 02:06:41;;;;;;;;;2.00;1.00;13.40;99.90;;;;;;5039814;28;12151;-59
2021/12/13 02:09:22;;;;;;;;;1.75;1.75;13.40;99.90;;;;;;5051972;28;11516;-59
2021/12/13 02:11:58;;;;;;;;;1.00;1.00;13.30;99.90;;;;;;5042844;28;11478;-59
2021/12/13 02:14:33;;;;;;;;;1.00;1.00;13.30;99.90;;;;;;5014555;28;11807;-59
2021/12/13 02:17:12;;;;;;;;;1.00;1.00;13.30;99.90;;;;;;5046569;28;11481;-59
2021/12/13 02:19:58;;;;;;;;;1.00;1.00;13.30;99.90;;;;;;5030742;28;11481;-59
2021/12/13 02:22:43;;;;;;;;;1.00;1.00;13.30;99.90;;;;;;5012414;28;12188;-59
2021/12/13 02:25:22;;;;;;;;;1.00;1.00;13.30;99.90;;;;;;5029042;28;11471;-59
2021/12/13 02:28:06;;;;;;;;;1.75;1.75;13.20;99.90;;;;;;5032881;28;11443;-58
2021/12/13 02:31:02;;;;;;;;;2.00;2.00;13.30;99.90;;;;;;5024178;28;11445;-59
2021/12/13 02:33:35;;;;;;;;;1.25;1.25;13.20;99.90;;;;;;5025530;28;11494;-59
2021/12/13 02:36:16;;;;;;;;;1.00;1.00;13.30;99.90;;;;;;5028043;28;11403;-59
2021/12/13 02:38:48;;;;;;;;;1.00;1.00;13.30;99.90;;;;;;5031640;28;11425;-60
2021/12/13 02:41:24;;;;;;;;;1.00;1.00;13.30;99.90;;;;;;5046447;28;11436;-59
2021/12/13 02:44:10;;;;;;;;;1.50;1.50;13.30;99.90;;;;;;5030760;28;11480;-60
2021/12/13 02:46:43;;;;;;;;;1.00;1.00;13.30;99.90;;;;;;5034785;28;11484;-59
2021/12/13 02:49:17;;;;;;;;;1.00;1.00;13.30;99.90;;;;;;5036719;28;11434;-60
2021/12/13 02:51:55;;;;;;;;;1.25;1.25;13.20;99.90;;;;;;5026376;28;11610;-59
2021/12/13 02:54:37;;;;;;;;;2.00;2.00;13.20;99.90;;;;;;5034882;28;12220;-59
2021/12/13 02:57:15;;;;;;;;;0.25;0.25;13.20;99.90;;;;;;5033138;28;11458;-57
2021/12/13 02:59:51;;;;;;;;;1.50;1.50;13.20;99.90;;;;;;5027751;28;11472;-59
2021/12/13 03:02:40;;;;;;;;;1.25;1.25;13.20;99.90;;;;;;5036981;28;11464;-58
2021/12/13 03:05:18;;;;;;;;;1.00;1.00;13.20;99.90;;;;;;5017422;28;11477;-59
2021/12/13 03:07:52;;;;;;;;;1.50;1.50;13.20;99.90;;;;;;5033370;28;11407;-60
2021/12/13 03:10:33;;;;;;;;;1.00;1.00;13.20;99.90;;;;;;5049152;28;11483;-60
2021/12/13 03:13:05;;;;;;;;;1.00;1.00;13.20;99.90;;;;;;5020814;28;11477;-60
2021/12/13 03:18:55;;;;;;;;;1.00;1.00;13.20;99.90;;;;;;5007483;28;11540;-59
2021/12/13 03:21:51;;;;;;;;;3.00;3.00;13.20;99.90;;;;;;4999650;28;11433;-60
2021/12/13 03:24:36;;;;;;;;;5.00;5.00;13.20;99.90;;;;;;5006728;28;11502;-59
2021/12/13 03:27:49;;;;;;;;;1.00;1.00;13.20;99.90;;;;;;5010752;28;11493;-59
2021/12/13 03:30:31;;;;;;;;;1.00;1.00;13.20;99.90;;;;;;5004400;28;11467;-58
2021/12/13 03:33:07;;;;;;;;;0.00;0.00;13.10;99.90;;;;;;5010148;28;11631;-60
2021/12/13 03:35:43;;;;;;;;;1.00;1.00;13.10;99.90;;;;;;4988270;28;11902;-58
2021/12/13 03:38:31;;;;;;;;;1.00;1.00;13.10;99.90;;;;;;5008150;28;11459;-59
2021/12/13 03:41:08;;;;;;;;;1.00;1.00;13.10;99.90;;;;;;5008940;28;11492;-60
2021/12/13 03:43:54;;;;;;;;;1.00;1.00;13.10;99.90;;;;;;5001393;28;11607;-58
2021/12/13 03:46:33;;;;;;;;;1.75;1.75;13.10;99.90;;;;;;5024078;28;11441;-58
2021/12/13 03:49:06;;;;;;;;;1.00;1.00;13.10;99.90;;;;;;5005214;28;11439;-58
2021/12/13 03:51:42;;;;;;;;;1.00;1.00;13.20;99.90;;;;;;5003275;28;11512;-58
2021/12/13 03:54:18;;;;;;;;;2.00;2.00;13.10;99.90;;;;;;5003406;28;12200;-58
2021/12/13 03:56:51;;;;;;;;;1.00;1.00;13.10;99.90;;;;;;4993585;28;11470;-59
2021/12/13 03:59:28;;;;;;;;;0.50;0.50;13.10;99.90;;;;;;5005940;28;11474;-58
2021/12/13 04:02:03;;;;;;;;;2.00;2.00;13.10;99.90;;;;;;5001275;28;11522;-59
2021/12/13 04:04:53;;;;;;;;;0.00;0.00;13.10;99.90;;;;;;5005965;28;12251;-58
2021/12/13 04:07:35;;;;;;;;;1.75;1.75;13.10;99.90;;;;;;5005319;28;11614;-59
2021/12/13 04:10:25;;;;;;;;;2.00;2.00;13.10;99.90;;;;;;5008412;28;11767;-59
2021/12/13 04:13:09;;;;;;;;;2.00;2.00;13.10;99.90;;;;;;5003514;28;11471;-59
2021/12/13 04:16:03;;;;;;;;;1.75;1.75;13.10;99.90;;;;;;4993190;28;11450;-58
2021/12/13 04:19:12;;;;;;;;;1.25;1.25;13.10;99.90;;;;;;5021467;28;11513;-59
2021/12/13 04:22:00;;;;;;;;;2.00;2.00;13.10;99.90;;;;;;4952351;28;11562;-59
2021/12/13 04:24:57;;;;;;;;;1.00;1.00;13.10;99.90;;;;;;5039552;28;11589;-59
2021/12/13 04:27:38;;;;;;;;;1.00;1.00;13.10;99.90;;;;;;5007399;28;12208;-59
2021/12/13 04:30:22;;;;;;;;;2.00;2.00;13.10;99.90;;;;;;5022297;28;11460;-59
2021/12/13 04:33:22;;;;;;;;;1.25;1.25;13.10;99.90;;;;;;5030133;28;11465;-58
2021/12/13 04:36:07;;;;;;;;;1.00;1.00;13.10;99.90;;;;;;5024512;28;11417;-59
2021/12/13 04:39:25;;;;;;;;;1.00;1.00;13.10;99.90;;;;;;5025162;28;11443;-58
2021/12/13 04:42:04;;;;;;;;;2.00;2.00;13.10;99.90;;;;;;5027340;28;11460;-59
2021/12/13 04:44:55;;;;;;;;;1.00;1.00;13.10;99.90;;;;;;5023492;28;11467;-60
2021/12/13 04:47:44;;;;;;;;;1.50;1.50;13.10;99.90;;;;;;5023065;28;11445;-60
2021/12/13 04:50:36;;;;;;;;;1.25;1.25;13.10;99.90;;;;;;5029257;28;11461;-59
2021/12/13 04:53:39;;;;;;;;;1.00;1.00;13.10;99.90;;;;;;5022163;28;11495;-57
2021/12/13 04:56:17;;;;;;;;;1.00;1.00;13.10;99.90;;;;;;5021864;28;11417;-59
2021/12/13 04:58:53;;;;;;;;;1.00;1.00;13.10;99.90;;;;;;5024746;28;11468;-58
2021/12/13 05:01:25;;;;;;;;;1.00;1.00;13.10;99.90;;;;;;5021778;28;11497;-59
2021/12/13 05:04:02;;;;;;;;;1.25;1.25;13.10;99.90;;;;;;5022222;28;11592;-58
2021/12/13 05:06:39;;;;;;;;;1.00;1.00;13.10;99.90;;;;;;5037666;28;11458;-58
2021/12/13 05:09:18;;;;;;;;;0.50;0.50;13.10;99.90;;;;;;5010142;28;12857;-59
2021/12/13 05:12:02;;;;;;;;;2.00;2.00;13.10;99.90;;;;;;5028101;28;11429;-59
2021/12/13 05:14:46;;;;;;;;;1.00;1.00;13.10;99.90;;;;;;5025194;28;11504;-59
2021/12/13 05:17:29;;;;;;;;;1.00;1.00;13.10;99.90;;;;;;5021640;28;11491;-58
2021/12/13 05:20:14;;;;;;;;;1.00;1.00;13.20;99.90;;;;;;5021517;28;11448;-58
2021/12/13 05:22:57;;;;;;;;;1.00;1.00;13.20;99.90;;;;;;5010304;28;11589;-58
2021/12/13 05:25:55;;;;;;;;;1.00;1.00;13.20;99.90;;;;;;5027826;28;11444;-59
2021/12/13 05:28:50;;;;;;;;;0.25;0.25;13.20;99.90;;;;;;5014108;28;11141;-59
2021/12/13 05:31:23;;;;;;;;;0.00;0.00;13.20;99.90;;;;;;5042012;28;13822;-59
2021/12/13 05:33:57;;;;;;;;;0.00;0.00;13.20;99.90;;;;;;5026543;28;11480;-58
2021/12/13 05:36:32;;;;;;;;;0.00;0.00;13.20;99.90;;;;;;5022729;28;11452;-58
2021/12/13 05:39:15;;;;;;;;;0.00;0.00;13.20;99.90;;;;;;5009083;28;13309;-59
2021/12/13 05:41:56;;;;;;;;;0.00;0.00;13.20;99.90;;;;;;5021397;28;11479;-58
2021/12/13 05:44:34;;;;;;;;;0.00;0.00;13.20;99.90;;;;;;5018082;28;11476;-57
2021/12/13 05:47:08;;;;;;;;;1.00;1.00;13.20;99.90;;;;;;5039614;28;11438;-58
2021/12/13 05:49:45;;;;;;;;;1.50;1.50;13.20;99.90;;;;;;5006677;28;11491;-58
2021/12/13 05:52:30;;;;;;;;;0.00;0.00;13.20;99.90;;;;;;5021585;28;11608;-58
2021/12/13 05:55:12;;;;;;;;;1.00;1.00;13.20;99.90;;;;;;5021675;28;11432;-56
2021/12/13 05:57:48;;;;;;;;;0.25;0.25;13.20;99.90;;;;;;5027872;28;11457;-58
2021/12/13 06:00:32;;;;;;;;;0.00;0.00;13.30;99.90;;;;;;5004415;28;11474;-57
2021/12/13 06:03:08;;;;;;;;;1.00;1.00;13.20;99.90;;;;;;5007828;28;11453;-59
2021/12/13 06:05:53;;;;;;;;;1.00;1.00;13.20;99.90;;;;;;5024307;28;11517;-58
2021/12/13 06:08:34;;;;;;;;;0.00;0.00;13.20;99.90;;;;;;5027582;28;11431;-58
2021/12/13 06:11:11;;;;;;;;;0.00;0.00;13.30;99.90;;;;;;4996847;28;11441;-58
2021/12/13 06:13:52;;;;;;;;;0.00;0.00;13.30;99.90;;;;;;5026803;28;11789;-59
2021/12/13 06:16:45;;;;;;;;;0.00;0.00;13.30;99.90;;;;;;5021115;28;11477;-58
2021/12/13 06:20:07;;;;;;;;;0.00;0.00;13.30;99.90;;;;;;5040674;28;11459;-58
2021/12/13 06:22:38;;;;;;;;;0.00;0.00;13.30;99.90;;;;;;4998977;28;11452;-59
2021/12/13 06:25:30;;;;;;;;;0.00;0.00;13.30;99.90;;;;;;5032084;28;12108;-58
2021/12/13 06:28:04;;;;;;;;;0.00;0.00;13.30;99.90;;;;;;5052931;28;11394;-59
2021/12/13 06:30:39;;;;;;;;;0.00;0.00;13.30;99.90;;;;;;5033141;28;10936;-59
2021/12/13 06:33:13;;;;;;;;;0.00;0.00;13.30;99.90;;;;;;5033629;28;11457;-59
2021/12/13 06:36:01;;;;;;;;;0.00;0.00;13.30;99.90;;;;;;5045535;28;12014;-60
2021/12/13 06:38:45;;;;;;;;;0.00;0.00;13.30;99.90;;;;;;5029231;28;11221;-59
2021/12/13 06:41:27;;;;;;;;;0.00;0.00;13.30;99.90;;;;;;5035852;28;11129;-59
2021/12/13 06:44:22;;;;;;;;;0.00;0.00;13.30;99.90;;;;;;5029084;28;11441;-59
2021/12/13 06:47:19;;;;;;;;;0.50;0.50;13.30;99.90;;;;;;5049384;28;11913;-59
2021/12/13 06:49:59;;;;;;;;;0.25;0.25;13.30;99.90;;;;;;5044860;28;11488;-59
2021/12/13 06:52:34;;;;;;;;;0.00;0.00;13.30;99.90;;;;;;5014863;28;11532;-59
2021/12/13 06:55:15;;;;;;;;;0.00;0.00;13.30;99.90;;;;;;5018087;28;11407;-59
2021/12/13 06:58:00;;;;;;;;;0.00;0.00;13.30;99.90;;;;;;5051533;28;11494;-57
2021/12/13 07:00:37;;;;;;;;;0.00;0.00;13.30;99.90;;;;;;5031626;28;11422;-58
2021/12/13 07:03:41;;;;;;;;;0.00;0.00;13.30;99.90;;;;;;5036850;28;11444;-58
2021/12/13 07:06:20;;;;;;;;;0.00;0.00;13.30;99.90;;;;;;5030523;28;11434;-60
2021/12/13 07:09:04;;;;;;;;;0.00;0.00;13.30;99.90;;;;;;5038283;28;11380;-58
2021/12/13 07:12:00;;;;;;;;;0.00;0.00;13.30;99.90;;;;;;5049353;28;11453;-58
2021/12/13 07:14:38;;;;;;;;;0.00;0.00;13.30;99.90;;;;;;5025163;28;11472;-58
2021/12/13 07:17:33;;;;;;;;;0.00;0.00;13.40;99.90;;;;;;5020318;28;11427;-58
2021/12/13 07:20:16;;;;;;;;;0.00;0.00;13.40;99.90;;;;;;5036153;28;11514;-58
2021/12/13 07:22:57;;;;;;;;;0.00;0.00;13.40;99.90;;;;;;5051312;28;11541;-59
2021/12/13 07:25:37;;;;;;;;;0.00;0.00;13.30;99.90;;;;;;5036150;28;11127;-57
2021/12/13 07:28:09;;;;;;;;;0.00;0.00;13.40;99.90;;;;;;5046891;28;11452;-58
2021/12/13 07:30:42;;;;;;;;;0.00;0.00;13.30;99.90;;;;;;5026727;28;11390;-57
2021/12/13 07:33:17;;;;;;;;;0.00;0.00;13.40;99.90;;;;;;5035003;28;11126;-58
2021/12/13 07:35:49;;;;;;;;;0.00;0.00;13.40;99.90;;;;;;5053502;28;11465;-59
2021/12/13 07:38:22;;;;;;;;;0.00;0.00;13.40;99.90;;;;;;5046843;28;11457;-58
2021/12/13 07:41:00;;;;;;;;;2.00;0.00;13.40;99.90;;;;;;5033034;28;11434;-59
2021/12/13 07:43:46;;;;;;;;;0.00;0.00;13.40;99.90;;;;;;5052644;28;11320;-58
2021/12/13 07:46:19;;;;;;;;;0.00;0.00;13.40;99.90;;;;;;5030421;28;11245;-58
2021/12/13 07:49:10;;;;;;;;;0.00;0.00;13.40;99.90;;;;;;5037932;28;11206;-58
2021/12/13 07:51:55;;;;;;;;;0.00;0.00;13.40;99.90;;;;;;5020402;28;11185;-58
2021/12/13 07:54:40;;;;;;;;;0.00;0.00;13.40;99.90;;;;;;5019759;28;11400;-58
2021/12/13 07:57:32;;;;;;;;;0.00;0.00;13.40;99.90;;;;;;5039555;28;11399;-58
2021/12/13 08:00:25;;;;;;;;;0.00;0.00;13.40;99.90;;;;;;5048567;28;11399;-58
2021/12/13 08:03:04;;;;;;;;;0.00;0.00;13.40;99.90;;;;;;5010563;28;12321;-58
2021/12/13 08:05:47;;;;;;;;;0.00;0.00;13.40;99.90;;;;;;5033015;28;11389;-58
2021/12/13 08:08:26;;;;;;;;;0.00;0.00;13.50;99.90;;;;;;5030969;28;12402;-58
2021/12/13 08:11:00;;;;;;;;;0.00;0.00;13.40;99.90;;;;;;5045805;28;11422;-58
2021/12/13 08:13:33;;;;;;;;;0.00;0.00;13.50;99.90;;;;;;5047444;28;11410;-58
2021/12/13 08:16:08;;;;;;;;;0.00;0.00;13.50;99.90;;;;;;5035092;28;11454;-57
2021/12/13 08:18:44;;;;;;;;;0.00;0.00;13.50;99.90;;;;;;5050533;28;11428;-57
2021/12/13 08:21:26;;;;;;;;;0.00;0.00;13.50;99.90;;;;;;5027961;28;11231;-57
2021/12/13 08:24:01;;;;;;;;;1.25;1.25;13.50;99.90;;;;;;5050668;28;11451;-58
2021/12/13 08:26:38;;;;;;;;;0.00;0.00;13.50;99.90;;;;;;5031160;28;12249;-58
2021/12/13 08:29:15;;;;;;;;;0.00;0.00;13.50;99.90;;;;;;5048600;28;11836;-58
2021/12/13 08:31:50;;;;;;;;;0.00;0.00;13.50;99.90;;;;;;5026634;28;12274;-58
2021/12/13 08:34:52;;;;;;;;;0.00;0.00;13.50;99.90;;;;;;5047352;28;12238;-58
2021/12/13 08:37:31;;;;;;;;;0.00;0.00;13.40;99.90;;;;;;5023494;28;11546;-57
2021/12/13 08:40:07;;;;;;;;;0.00;0.00;13.40;99.90;;;;;;5041253;28;11453;-57
2021/12/13 08:42:43;;;;;;;;;0.00;0.00;13.40;99.90;;;;;;5050851;28;11397;-58
2021/12/13 08:45:27;;;;;;;;;0.00;0.00;13.40;99.90;;;;;;5018065;28;12211;-58
2021/12/13 08:48:09;;;;;;;;;0.00;0.00;13.40;99.90;;;;;;5046801;28;11387;-57
2021/12/13 08:50:50;;;;;;;;;0.00;0.00;13.40;99.90;;;;;;5029488;28;11485;-58
2021/12/13 08:53:35;;;;;;;;;0.00;0.00;13.40;99.90;;;;;;5035018;28;11483;-57
2021/12/13 08:56:21;;;;;;;;;0.00;0.00;13.40;99.90;;;;;;5034899;28;11416;-57
2021/12/13 08:59:08;;;;;;;;;0.00;0.00;13.40;99.90;;;;;;5048853;28;11428;-57
2021/12/13 09:01:48;;;;;;;;;0.00;0.00;13.40;99.90;;;;;;5031787;28;11513;-57
2021/12/13 09:04:27;;;;;;;;;0.00;0.00;13.40;99.90;;;;;;5038890;28;11445;-57
2021/12/13 09:07:03;;;;;;;;;0.00;0.00;13.40;99.90;;;;;;5047421;28;11378;-57
2021/12/13 09:09:34;;;;;;;;;0.00;0.00;13.40;99.90;;;;;;5044114;28;11464;-57
2021/12/13 09:12:09;;;;;;;;;0.00;0.00;13.40;99.90;;;;;;5037936;28;11563;-58
2021/12/13 09:14:50;;;;;;;;;0.00;0.00;13.40;99.90;;;;;;5030844;28;11541;-57
2021/12/13 09:17:36;;;;;;;;;0.00;0.00;13.40;99.90;;;;;;5047960;28;11441;-57
2021/12/13 09:20:18;;;;;;;;;0.00;0.00;13.40;99.90;;;;;;5028422;28;11424;-57
2021/12/13 09:23:06;;;;;;;;;0.00;0.00;13.40;99.90;;;;;;5016899;28;11421;-57
2021/12/13 09:25:53;;;;;;;;;0.00;0.00;13.40;99.90;;;;;;5029962;28;11494;-57
2021/12/13 09:28:33;;;;;;;;;0.00;0.00;13.30;99.90;;;;;;5045556;28;11428;-57
2021/12/13 09:31:19;;;;;;;;;0.00;0.00;13.30;99.90;;;;;;5047732;28;11426;-57
2021/12/13 09:34:11;;;;;;;;;0.00;0.00;13.30;99.90;;;;;;5034030;28;11461;-58
2021/12/13 09:36:47;;;;;;;;;1.00;1.00;13.30;99.90;;;;;;5014273;28;11397;-57
2021/12/13 09:39:27;;;;;;;;;1.00;0.00;13.30;99.90;;;;;;5050184;28;12162;-58
2021/12/13 09:42:05;;;;;;;;;0.00;0.00;13.30;99.90;;;;;;5048359;28;11413;-58
2021/12/13 09:44:55;;;;;;;;;0.00;0.00;13.30;99.90;;;;;;5013110;28;11441;-58
2021/12/13 09:47:39;;;;;;;;;0.00;0.00;13.30;99.90;;;;;;5046779;28;11429;-58
2021/12/13 09:50:23;;;;;;;;;1.00;0.00;13.30;99.90;;;;;;5051978;28;11766;-58
2021/12/13 09:53:01;;;;;;;;;0.00;0.00;13.30;99.90;;;;;;5050609;28;11397;-57
2021/12/13 09:55:41;;;;;;;;;0.00;0.00;13.30;99.90;;;;;;5039064;28;11465;-57
2021/12/13 09:58:24;;;;;;;;;0.25;0.25;13.30;99.90;;;;;;5038343;28;11441;-57
2021/12/13 10:01:25;;;;;;;;;2.00;2.00;13.30;99.90;;;;;;5037915;28;11429;-58
2021/12/13 10:04:18;;;;;;;;;0.25;0.25;13.30;99.90;;;;;;5028234;28;11505;-58
2021/12/13 10:06:58;;;;;;;;;0.00;0.00;13.30;99.90;;;;;;5052718;28;11455;-58
2021/12/13 10:09:43;;;;;;;;;0.00;0.00;13.30;99.90;;;;;;5033092;28;11606;-58
2021/12/13 10:12:39;;;;;;;;;0.00;0.00;13.30;99.90;;;;;;5037689;28;12139;-58
2021/12/13 10:15:25;;;;;;;;;0.00;0.00;13.30;99.90;;;;;;5045396;28;11396;-58
2021/12/13 10:18:03;;;;;;;;;0.00;0.00;13.30;99.90;;;;;;5030956;28;11510;-58
2021/12/13 10:20:44;;;;;;;;;0.00;0.00;13.30;99.90;;;;;;5038519;28;11439;-58
2021/12/13 10:23:18;;;;;;;;;0.00;0.00;13.30;99.90;;;;;;5027402;28;11460;-58
2021/12/13 10:25:52;;;;;;;;;0.00;0.00;13.30;99.90;;;;;;5013350;28;11531;-58
2021/12/13 10:28:27;;;;;;;;;0.00;0.00;13.30;99.90;;;;;;5024516;28;11487;-57
2021/12/13 10:31:07;;;;;;;;;0.75;0.75;13.30;99.90;;;;;;5028128;28;11416;-57
2021/12/13 10:33:38;;;;;;;;;0.00;0.00;13.20;99.90;;;;;;5026157;28;11511;-58
2021/12/13 10:36:09;;;;;;;;;0.00;0.00;13.20;99.90;;;;;;5024747;28;11413;-57
2021/12/13 10:38:53;;;;;;;;;0.00;0.00;13.20;99.90;;;;;;5044602;28;11468;-57
2021/12/13 10:41:35;;;;;;;;;0.00;0.00;13.20;99.90;;;;;;5010991;28;11488;-58
2021/12/13 10:44:11;;;;;;;;;0.00;0.00;13.20;99.90;;;;;;5018952;28;12175;-61
2021/12/13 10:46:47;;;;;;;;;0.00;0.00;13.20;99.90;;;;;;5033073;28;11504;-57
2021/12/13 10:49:22;;;;;;;;;0.00;0.00;13.20;99.90;;;;;;5023885;28;11501;-58
2021/12/13 10:52:08;;;;;;;;;0.00;0.00;13.20;99.90;;;;;;5029748;28;11406;-58
2021/12/13 10:54:43;;;;;;;;;0.00;0.00;13.20;99.90;;;;;;5010904;28;12054;-58
2021/12/13 10:57:28;;;;;;;;;0.00;0.00;13.20;99.90;;;;;;5026920;28;11467;-58
2021/12/13 11:00:00;;;;;;;;;0.00;0.00;13.20;99.90;;;;;;5028987;28;11462;-57
2021/12/13 11:02:35;;;;;;;;;0.00;0.00;13.20;99.90;;;;;;5019574;28;11681;-58
2021/12/13 11:05:13;;;;;;;;;0.25;0.25;13.20;99.90;;;;;;5020970;28;11472;-57
2021/12/13 11:07:44;;;;;;;;;0.00;0.00;13.20;99.90;;;;;;5044825;28;11460;-58
2021/12/13 11:10:22;;;;;;;;;0.00;0.00;13.20;99.90;;;;;;4995470;28;11544;-58
2021/12/13 11:12:59;;;;;;;;;0.00;0.00;13.20;99.90;;;;;;5041444;28;11445;-58
2021/12/13 11:15:37;;;;;;;;;0.75;0.75;13.20;99.90;;;;;;5030910;28;11467;-58
2021/12/13 11:18:16;;;;;;;;;0.00;0.00;13.20;99.90;;;;;;5024550;28;12847;-58
2021/12/13 11:20:50;;;;;;;;;0.00;0.00;13.20;99.90;;;;;;5041339;28;11486;-59
2021/12/13 11:23:21;;;;;;;;;0.00;0.00;13.20;99.90;;;;;;5020848;28;11486;-58
2021/12/13 11:25:57;;;;;;;;;0.00;0.00;13.20;99.90;;;;;;5016664;28;12590;-58
2021/12/13 11:28:31;;;;;;;;;0.00;0.00;13.20;99.90;;;;;;5037263;28;11486;-58
2021/12/13 11:31:52;;;;;;;;;0.00;0.00;13.20;99.90;;;;;;5033348;28;11435;-58
2021/12/13 11:34:57;;;;;;;;;0.00;0.00;13.20;99.90;;;;;;5028504;28;11491;-58
2021/12/13 11:38:06;;;;;;;;;0.00;0.00;13.20;99.90;;;;;;5027009;28;11530;-58
2021/12/13 11:40:52;;;;;;;;;0.00;0.00;13.20;99.90;;;;;;5006203;28;12199;-58
2021/12/13 11:43:55;;;;;;;;;0.00;0.00;13.20;99.90;;;;;;5030201;28;11542;-58
2021/12/13 11:46:44;;;;;;;;;0.00;0.00;13.20;99.90;;;;;;5028990;28;11456;-58
2021/12/13 11:49:49;;;;;;;;;0.00;0.00;13.20;99.90;;;;;;5030563;28;11588;-58
2021/12/13 11:52:55;;;;;;;;;0.00;0.00;13.20;99.90;;;;;;5025943;28;11592;-57
2021/12/13 11:56:08;;;;;;;;;0.00;0.00;13.10;99.90;;;;;;5022460;28;11454;-58
2021/12/13 11:58:52;;;;;;;;;0.00;0.00;13.20;99.90;;;;;;5032240;28;11466;-58
2021/12/13 12:01:40;;;;;;;;;0.00;0.00;13.20;99.90;;;;;;5012414;28;11472;-58
2021/12/13 12:05:05;;;;;;;;;0.00;0.00;13.20;99.90;;;;;;5022143;28;12238;-58
2021/12/13 12:08:25;;;;;;;;;0.00;0.00;13.20;99.90;;;;;;5012145;28;11456;-58
2021/12/13 12:11:13;;;;;;;;;0.00;0.00;13.20;99.90;;;;;;5019471;28;11463;-57
2021/12/13 12:14:10;;;;;;;;;0.00;0.00;13.20;99.90;;;;;;5039989;28;11447;-57
2021/12/13 12:16:50;;;;;;;;;0.00;0.00;13.20;99.90;;;;;;5029447;28;12157;-57
2021/12/13 12:19:34;;;;;;;;;0.00;0.00;13.20;99.90;;;;;;5037148;28;11452;-58
2021/12/13 12:22:18;;;;;;;;;0.00;0.00;13.20;99.90;;;;;;5027088;28;11432;-57
2021/12/13 12:24:59;;;;;;;;;0.00;0.00;13.20;99.90;;;;;;5041610;28;11422;-58
2021/12/13 12:27:34;;;;;;;;;0.00;0.00;13.20;99.90;;;;;;5043387;28;11470;-58
2021/12/13 12:30:14;;;;;;;;;0.00;0.00;13.20;99.90;;;;;;5042769;28;11483;-57
2021/12/13 12:32:49;;;;;;;;;0.00;0.00;13.20;99.90;;;;;;5021434;28;11459;-57
2021/12/13 12:35:32;;;;;;;;;0.00;0.00;13.20;99.90;;;;;;5010653;28;11494;-58
2021/12/13 12:38:41;;;;;;;;;0.00;0.00;13.20;99.90;;;;;;5045008;28;11459;-58
2021/12/13 12:41:40;;;;;;;;;0.00;0.00;13.20;99.90;;;;;;4923188;28;11468;-58
2021/12/13 12:44:31;;;;;;;;;0.00;0.00;13.20;99.90;;;;;;4929674;28;11486;-57
2021/12/13 12:47:04;;;;;;;;;0.00;0.00;13.20;99.90;;;;;;5011423;28;11424;-57
2021/12/13 12:49:35;;;;;;;;;0.00;0.00;13.20;99.90;;;;;;5030574;28;11441;-58
2021/12/13 12:52:09;;;;;;;;;0.00;0.00;13.20;99.90;;;;;;5051865;28;11176;-58
2021/12/13 12:54:40;;;;;;;;;0.00;0.00;13.20;99.90;;;;;;5022393;28;11593;-58
2021/12/13 12:57:13;;;;;;;;;0.00;0.00;13.20;99.90;;;;;;5050047;28;11459;-58
2021/12/13 12:59:52;;;;;;;;;0.00;0.00;13.20;99.90;;;;;;5027379;28;11411;-58
2021/12/13 13:02:41;;;;;;;;;0.00;0.00;13.20;99.90;;;;;;5022873;28;11473;-58
2021/12/13 13:05:14;;;;;;;;;0.00;0.00;13.20;99.90;;;;;;5045818;28;11486;-58
2021/12/13 13:07:45;;;;;;;;;0.00;0.00;13.20;99.90;;;;;;5032723;28;11420;-58
2021/12/13 13:10:24;;;;;;;;;0.00;0.00;13.20;99.90;;;;;;5044654;28;11414;-59
2021/12/13 13:13:02;;;;;;;;;0.00;0.00;13.20;99.90;;;;;;5025198;28;11416;-59
2021/12/13 13:15:44;;;;;;;;;0.00;0.00;13.20;99.90;;;;;;5051402;28;11556;-59
2021/12/13 13:18:26;;;;;;;;;0.00;0.00;13.20;99.90;;;;;;5041644;28;11551;-58
2021/12/13 13:21:04;;;;;;;;;0.00;0.00;13.20;99.90;;;;;;5026144;28;11495;-59
2021/12/13 13:23:50;;;;;;;;;0.00;0.00;13.20;99.90;;;;;;5043878;28;11529;-59
2021/12/13 13:26:21;;;;;;;;;0.00;0.00;13.20;99.90;;;;;;5043230;28;11467;-58
2021/12/13 13:28:56;;;;;;;;;0.00;0.00;13.20;99.90;;;;;;5009852;28;11602;-59
2021/12/13 13:31:29;;;;;;;;;1.00;0.00;13.20;99.90;;;;;;5036250;28;11433;-58
2021/12/13 13:34:16;;;;;;;;;0.00;0.00;13.20;99.90;;;;;;5049502;28;11361;-58
2021/12/13 13:36:57;;;;;;;;;0.00;0.00;13.20;99.90;;;;;;5045147;28;11412;-59
2021/12/13 13:39:45;;;;;;;;;0.00;0.00;13.20;99.90;;;;;;5019965;28;11430;-57
2021/12/13 13:42:22;;;;;;;;;0.00;0.00;13.20;99.90;;;;;;5026614;28;11416;-57
2021/12/13 13:45:04;;;;;;;;;0.00;0.00;13.20;99.90;;;;;;5034691;28;11165;-57
2021/12/13 13:47:38;;;;;;;;;0.00;0.00;13.20;99.90;;;;;;5039639;28;11433;-58
2021/12/13 13:50:39;;;;;;;;;0.00;0.00;13.20;99.90;;;;;;5032920;28;11040;-57
2021/12/13 13:53:18;;;;;;;;;0.00;0.00;13.20;99.90;;;;;;5044039;28;11318;-58
2021/12/13 13:56:00;;;;;;;;;0.00;0.00;13.20;99.90;;;;;;5026604;28;11413;-57
2021/12/13 13:58:43;;;;;;;;;0.00;0.00;13.20;99.90;;;;;;5044721;28;11106;-57
2021/12/13 14:01:39;;;;;;;;;0.00;0.00;13.20;99.90;;;;;;5024308;28;11854;-57
2021/12/13 14:04:27;;;;;;;;;0.00;0.00;13.20;99.90;;;;;;5016852;28;11888;-58
2021/12/13 14:07:26;;;;;;;;;0.00;0.00;13.20;99.90;;;;;;5036993;28;11391;-57
2021/12/13 14:10:10;;;;;;;;;0.00;0.00;13.20;99.90;;;;;;5025741;28;11425;-58
2021/12/13 14:12:45;;;;;;;;;0.00;0.00;13.20;99.90;;;;;;5028354;28;11595;-57